Time;durP1;ratioP1;P1;durP2;ratioP2;P2;SDS_P1;SDS_P2;PMS_P1;PMS_P2;Temp;Humidity;BMP_temperature;BMP_pressure;BME280_temperature;BME280_humidity;BME280_pressure;Samples;Min_cycle;Max_cycle;Signal;HPM_P1;HPM_P2
2021/10/09 00:00:58;;;;;;;31.07;20.67;;;12.20;72.50;;;;;;5053897;28;20025;-82
2021/10/09 00:03:24;;;;;;;28.43;20.37;;;12.30;72.70;;;;;;5054023;28;20021;-82
2021/10/09 00:05:50;;;;;;;28.07;20.07;;;12.20;72.70;;;;;;5053869;28;20373;-82
2021/10/09 00:08:17;;;;;;;29.00;21.17;;;12.20;72.90;;;;;;5054879;28;20094;-82
2021/10/09 00:10:43;;;;;;;36.50;23.83;;;12.20;72.80;;;;;;5055078;28;20025;-82
2021/10/09 00:13:09;;;;;;;39.67;27.87;;;12.20;72.80;;;;;;5047904;28;20033;-82
2021/10/09 00:15:35;;;;;;;38.40;29.23;;;12.20;72.70;;;;;;5048748;28;20119;-82
2021/10/09 00:18:01;;;;;;;41.67;30.27;;;12.20;72.80;;;;;;5054598;28;20030;-82
2021/10/09 00:20:31;;;;;;;37.97;28.27;;;12.30;73.00;;;;;;5042888;28;20034;-82
2021/10/09 00:22:57;;;;;;;40.87;28.83;;;12.30;73.00;;;;;;5053407;28;20029;-82
2021/10/09 00:25:24;;;;;;;42.47;31.47;;;12.30;72.90;;;;;;5053619;28;20049;-82
2021/10/09 00:27:50;;;;;;;50.33;35.20;;;12.20;72.90;;;;;;5054126;28;20055;-82
2021/10/09 00:30:16;;;;;;;70.60;47.80;;;12.20;72.90;;;;;;5052611;28;20404;-82
2021/10/09 00:32:42;;;;;;;99.13;69.27;;;12.20;73.00;;;;;;5049369;28;20029;-82
2021/10/09 00:35:08;;;;;;;68.40;48.23;;;12.20;73.00;;;;;;5052836;28;20036;-82
2021/10/09 00:37:34;;;;;;;80.53;57.67;;;12.20;73.00;;;;;;5051229;28;20029;-82
2021/10/09 00:40:00;;;;;;;56.97;31.77;;;12.20;73.00;;;;;;5051066;28;20529;-82
2021/10/09 00:42:25;;;;;;;32.13;23.07;;;12.10;72.80;;;;;;5051900;28;20039;-82
2021/10/09 00:44:51;;;;;;;34.27;23.47;;;12.10;73.10;;;;;;5053903;28;20033;-82
2021/10/09 00:47:21;;;;;;;34.03;23.37;;;12.00;73.40;;;;;;5056664;28;20024;-82
2021/10/09 00:49:47;;;;;;;30.67;23.13;;;12.00;73.60;;;;;;5049027;28;20029;-82
2021/10/09 00:52:13;;;;;;;34.07;23.67;;;12.00;73.60;;;;;;5050852;28;20036;-81
2021/10/09 00:54:44;;;;;;;31.60;23.57;;;11.90;73.60;;;;;;5051728;28;20029;-82
2021/10/09 00:57:13;;;;;;;32.47;22.70;;;11.90;73.60;;;;;;5049962;28;20037;-81
2021/10/09 00:59:40;;;;;;;35.10;24.27;;;12.00;73.60;;;;;;5048242;28;20109;-81
2021/10/09 01:02:07;;;;;;;34.30;22.60;;;11.90;73.40;;;;;;5042859;28;20044;-82
2021/10/09 01:04:33;;;;;;;30.97;22.63;;;11.90;73.20;;;;;;5046085;28;20034;-82
2021/10/09 01:07:01;;;;;;;30.93;23.00;;;11.90;73.30;;;;;;5036931;28;20017;-81
2021/10/09 01:09:27;;;;;;;30.97;21.30;;;11.90;73.20;;;;;;5047806;28;20064;-81
2021/10/09 01:11:53;;;;;;;30.33;20.93;;;11.90;73.20;;;;;;5047797;28;20474;-81
2021/10/09 01:14:18;;;;;;;34.00;23.27;;;11.90;73.40;;;;;;5049918;28;20029;-82
2021/10/09 01:16:46;;;;;;;35.07;23.87;;;11.90;73.40;;;;;;5047030;28;20060;-81
2021/10/09 01:19:11;;;;;;;34.43;20.33;;;11.90;73.40;;;;;;5050214;28;20029;-82
2021/10/09 01:21:43;;;;;;;34.93;20.90;;;11.80;73.30;;;;;;5053045;28;20043;-82
2021/10/09 01:24:09;;;;;;;28.53;19.13;;;11.80;73.50;;;;;;5048526;28;20052;-82
2021/10/09 01:26:36;;;;;;;23.23;15.90;;;11.80;73.50;;;;;;5051804;28;20036;-81
2021/10/09 01:29:05;;;;;;;21.30;15.20;;;11.70;73.60;;;;;;5046465;28;20556;-82
2021/10/09 01:31:32;;;;;;;24.33;18.57;;;11.60;73.30;;;;;;5051578;28;20500;-82
2021/10/09 01:33:58;;;;;;;28.17;20.10;;;11.60;73.40;;;;;;5047760;28;20036;-82
2021/10/09 01:36:38;;;;;;;16.77;12.13;;;11.60;73.40;;;;;;5048616;28;20106;-82
2021/10/09 01:39:06;;;;;;;15.70;10.97;;;11.40;73.30;;;;;;5050465;28;20035;-82
2021/10/09 01:41:41;;;;;;;18.17;13.17;;;11.40;73.50;;;;;;5048960;28;20436;-82
2021/10/09 01:44:07;;;;;;;19.43;13.30;;;11.30;73.40;;;;;;5046152;28;20037;-82
2021/10/09 01:46:33;;;;;;;27.27;17.80;;;11.30;73.50;;;;;;5046908;28;20057;-81
2021/10/09 01:48:59;;;;;;;53.20;25.50;;;11.30;73.70;;;;;;5049865;28;20116;-82
2021/10/09 01:51:26;;;;;;;53.43;30.33;;;11.40;73.70;;;;;;5049630;28;20111;-82
2021/10/09 01:53:52;;;;;;;50.80;30.80;;;11.40;73.60;;;;;;5046975;28;20028;-82
2021/10/09 01:56:18;;;;;;;19.73;14.40;;;11.40;73.70;;;;;;5039666;28;20032;-82
2021/10/09 01:58:44;;;;;;;18.30;12.07;;;11.30;73.60;;;;;;5043552;28;20484;-82
2021/10/09 02:01:10;;;;;;;18.67;12.43;;;11.40;73.30;;;;;;5050021;28;20052;-82
2021/10/09 02:03:35;;;;;;;18.43;11.10;;;11.30;73.00;;;;;;5048495;28;20063;-82
2021/10/09 02:06:02;;;;;;;15.23;10.33;;;11.30;72.90;;;;;;5052114;28;20039;-82
2021/10/09 02:08:27;;;;;;;18.73;12.80;;;11.30;72.60;;;;;;5052348;28;20032;-81
2021/10/09 02:13:25;;;;;;;26.17;16.23;;;11.10;73.20;;;;;;5050937;28;20471;-81
2021/10/09 02:16:08;;;;;;;21.50;14.60;;;11.10;73.80;;;;;;5051312;28;20033;-81
2021/10/09 02:26:34;;;;;;;22.00;13.63;;;11.10;73.90;;;;;;5045941;28;20052;-81
2021/10/09 02:29:00;;;;;;;21.83;13.03;;;11.10;74.00;;;;;;5048709;28;20029;-81
2021/10/09 02:31:27;;;;;;;21.63;15.00;;;11.20;73.90;;;;;;5045725;28;20124;-81
2021/10/09 02:33:53;;;;;;;28.93;18.60;;;11.10;73.90;;;;;;5051275;28;20602;-81
2021/10/09 02:36:19;;;;;;;27.83;16.87;;;11.20;74.00;;;;;;5046991;28;20043;-81
2021/10/09 02:38:45;;;;;;;34.00;22.23;;;11.20;74.00;;;;;;5050076;28;20021;-81
2021/10/09 02:41:12;;;;;;;22.43;14.70;;;11.20;74.10;;;;;;5044985;28;20044;-81
2021/10/09 02:43:37;;;;;;;25.97;17.27;;;11.20;74.10;;;;;;5037651;28;20030;-81
2021/10/09 02:46:03;;;;;;;25.03;15.70;;;11.20;74.00;;;;;;5047433;28;20025;-81
2021/10/09 02:48:29;;;;;;;23.30;15.70;;;11.20;73.90;;;;;;5042135;28;20487;-81
2021/10/09 02:50:55;;;;;;;28.77;18.97;;;11.20;74.10;;;;;;5051806;28;20029;-81
2021/10/09 02:53:20;;;;;;;24.03;16.37;;;11.20;74.00;;;;;;5045498;28;20107;-81
2021/10/09 02:55:46;;;;;;;26.80;14.57;;;11.20;74.00;;;;;;5051368;28;20112;-81
2021/10/09 02:58:12;;;;;;;15.63;9.60;;;11.20;74.00;;;;;;5049915;28;20025;-81
2021/10/09 03:00:38;;;;;;;15.07;10.80;;;11.10;73.90;;;;;;5049483;28;20038;-82
2021/10/09 03:03:03;;;;;;;12.40;9.17;;;11.00;73.80;;;;;;5048977;28;20029;-81
2021/10/09 03:05:29;;;;;;;14.70;9.97;;;11.00;74.00;;;;;;5048800;28;20136;-81
2021/10/09 03:07:55;;;;;;;15.83;10.27;;;10.90;74.10;;;;;;5049260;28;20083;-81
2021/10/09 03:10:21;;;;;;;17.17;9.97;;;10.90;74.10;;;;;;5048778;28;20100;-81
2021/10/09 03:12:47;;;;;;;12.83;9.73;;;11.00;74.00;;;;;;5047017;28;20032;-81
2021/10/09 03:15:13;;;;;;;15.00;9.90;;;10.90;73.90;;;;;;5042112;28;20025;-81
2021/10/09 03:17:40;;;;;;;13.27;7.93;;;11.00;73.80;;;;;;5040932;28;20022;-81
2021/10/09 03:20:07;;;;;;;10.23;7.37;;;11.00;73.60;;;;;;5049477;28;20053;-81
2021/10/09 03:22:33;;;;;;;10.80;8.47;;;11.00;73.40;;;;;;5044437;28;20029;-81
2021/10/09 03:24:59;;;;;;;12.00;8.00;;;10.90;73.40;;;;;;5050528;28;20841;-81
2021/10/09 03:27:25;;;;;;;11.30;8.60;;;10.90;73.50;;;;;;5049618;28;20100;-81
2021/10/09 03:29:51;;;;;;;13.43;9.30;;;10.90;73.40;;;;;;5050568;28;20528;-81
2021/10/09 03:32:16;;;;;;;13.50;9.40;;;10.80;73.60;;;;;;5053345;28;20025;-81
2021/10/09 03:34:42;;;;;;;12.47;8.80;;;10.80;73.70;;;;;;5046900;28;20030;-81
2021/10/09 03:37:08;;;;;;;11.53;9.00;;;10.80;73.60;;;;;;5049079;28;20021;-81
2021/10/09 03:39:35;;;;;;;12.27;8.80;;;10.90;73.50;;;;;;5042112;28;20025;-81
2021/10/09 03:42:06;;;;;;;11.97;8.27;;;10.90;73.40;;;;;;5049680;28;20029;-81
2021/10/09 03:44:37;;;;;;;15.20;9.87;;;10.80;73.40;;;;;;5051076;28;20025;-81
2021/10/09 03:47:17;;;;;;;15.77;9.87;;;10.80;73.40;;;;;;5048216;28;20045;-81
2021/10/09 03:49:58;;;;;;;13.33;9.60;;;10.80;73.70;;;;;;5050137;28;20106;-81
2021/10/09 03:52:38;;;;;;;11.53;8.60;;;10.80;73.90;;;;;;5045992;28;20025;-81
2021/10/09 03:55:09;;;;;;;14.83;10.47;;;10.80;73.90;;;;;;5046271;28;20029;-81
2021/10/09 03:57:36;;;;;;;14.80;9.23;;;10.90;73.90;;;;;;5051432;28;20116;-81
2021/10/09 04:00:07;;;;;;;14.97;9.30;;;10.90;73.90;;;;;;5050677;28;20040;-81
2021/10/09 04:02:33;;;;;;;13.97;10.27;;;10.90;74.00;;;;;;5053656;28;20104;-81
2021/10/09 04:04:58;;;;;;;13.40;9.80;;;10.90;74.10;;;;;;5042386;28;20174;-81
2021/10/09 04:07:24;;;;;;;12.80;9.97;;;10.90;74.10;;;;;;5053599;28;20075;-81
2021/10/09 04:09:50;;;;;;;17.40;11.80;;;10.80;74.20;;;;;;5054304;28;20031;-81
2021/10/09 04:12:16;;;;;;;26.07;16.53;;;10.80;74.40;;;;;;5049980;28;20032;-81
2021/10/09 04:14:41;;;;;;;49.27;24.17;;;10.90;74.50;;;;;;5042651;28;20037;-81
2021/10/09 04:17:07;;;;;;;30.57;18.97;;;10.90;74.60;;;;;;5053191;28;20021;-81
2021/10/09 04:19:34;;;;;;;30.27;18.03;;;10.90;74.70;;;;;;5050898;28;20032;-81
2021/10/09 04:21:59;;;;;;;32.20;20.90;;;11.00;74.80;;;;;;5045430;28;20029;-81
2021/10/09 04:24:25;;;;;;;31.97;19.37;;;11.00;74.90;;;;;;5046103;28;20037;-81
2021/10/09 04:26:51;;;;;;;35.13;20.27;;;11.00;74.80;;;;;;5053395;28;20037;-81
2021/10/09 04:29:17;;;;;;;31.23;18.93;;;11.00;74.70;;;;;;5045733;28;20080;-81
2021/10/09 04:31:43;;;;;;;28.77;17.93;;;11.00;74.90;;;;;;5046257;28;20025;-81
2021/10/09 04:34:09;;;;;;;42.40;21.97;;;10.90;75.00;;;;;;5044580;28;20029;-81
2021/10/09 04:36:34;;;;;;;39.43;22.00;;;10.90;75.20;;;;;;5040561;28;20893;-81
2021/10/09 04:39:00;;;;;;;76.63;35.43;;;10.90;75.20;;;;;;5043024;28;20037;-81
2021/10/09 04:41:26;;;;;;;50.10;25.87;;;10.90;75.20;;;;;;5052463;28;20124;-81
2021/10/09 04:43:52;;;;;;;40.20;22.07;;;10.90;75.20;;;;;;5054536;28;20060;-81
2021/10/09 04:46:18;;;;;;;33.63;20.30;;;10.90;75.20;;;;;;5053908;28;20056;-81
2021/10/09 04:48:44;;;;;;;31.47;17.77;;;10.90;75.00;;;;;;5051055;28;20472;-82
2021/10/09 04:51:09;;;;;;;35.00;20.50;;;11.00;75.10;;;;;;5053319;28;20025;-81
2021/10/09 04:53:35;;;;;;;33.77;21.27;;;10.90;75.00;;;;;;5052372;28;20067;-81
2021/10/09 04:56:01;;;;;;;34.67;21.07;;;11.00;75.00;;;;;;5052513;28;20451;-81
2021/10/09 04:58:26;;;;;;;29.50;19.83;;;11.00;75.00;;;;;;5052320;28;20028;-81
2021/10/09 05:00:52;;;;;;;32.63;21.47;;;11.00;74.90;;;;;;5049941;28;20032;-81
2021/10/09 05:03:18;;;;;;;45.93;25.33;;;11.00;74.90;;;;;;5048538;28;20060;-81
2021/10/09 05:05:44;;;;;;;45.07;25.03;;;10.90;74.80;;;;;;5051252;28;20514;-81
2021/10/09 05:08:10;;;;;;;50.33;26.97;;;10.90;74.90;;;;;;5051941;28;20071;-81
2021/10/09 05:10:37;;;;;;;36.87;22.13;;;10.90;75.00;;;;;;5052445;28;20029;-81
2021/10/09 05:13:04;;;;;;;36.33;20.47;;;10.90;75.10;;;;;;5053544;28;20079;-81
2021/10/09 05:15:29;;;;;;;48.77;27.47;;;10.90;75.10;;;;;;5052770;28;20042;-81
2021/10/09 05:17:55;;;;;;;24.80;17.40;;;10.80;75.20;;;;;;5050653;28;20013;-81
2021/10/09 05:20:21;;;;;;;45.60;28.57;;;10.90;75.40;;;;;;5042772;28;20150;-81
2021/10/09 05:22:46;;;;;;;42.47;26.07;;;10.80;75.30;;;;;;5050259;28;20021;-81
2021/10/09 05:25:12;;;;;;;51.43;30.17;;;10.90;75.40;;;;;;5052098;28;20049;-81
2021/10/09 05:27:41;;;;;;;78.77;42.37;;;10.90;75.30;;;;;;5053398;28;20104;-81
2021/10/09 05:30:10;;;;;;;44.57;26.10;;;10.90;75.20;;;;;;5053364;28;20028;-81
2021/10/09 05:32:46;;;;;;;65.17;36.17;;;10.90;75.20;;;;;;5045027;28;20372;-81
2021/10/09 05:35:12;;;;;;;54.67;30.33;;;10.90;75.20;;;;;;5067771;28;20025;-81
2021/10/09 05:37:38;;;;;;;32.03;21.03;;;10.90;75.10;;;;;;5042669;28;20028;-81
2021/10/09 05:40:04;;;;;;;37.53;24.70;;;10.90;75.00;;;;;;5040672;28;20080;-81
2021/10/09 05:42:30;;;;;;;30.43;21.93;;;10.80;74.90;;;;;;5049789;28;20024;-81
2021/10/09 05:44:56;;;;;;;29.47;22.37;;;10.80;74.90;;;;;;5041817;28;20103;-81
2021/10/09 05:47:22;;;;;;;30.90;20.20;;;10.80;74.90;;;;;;5041727;28;20014;-81
2021/10/09 05:49:53;;;;;;;31.73;22.30;;;10.80;74.90;;;;;;5049217;28;20040;-81
2021/10/09 05:52:33;;;;;;;31.17;21.20;;;10.80;74.80;;;;;;5048199;28;20021;-81
2021/10/09 05:55:21;;;;;;;34.50;19.97;;;10.80;74.80;;;;;;5051618;28;20021;-81
2021/10/09 05:58:06;;;;;;;39.20;22.00;;;10.80;74.70;;;;;;5040441;28;20021;-81
2021/10/09 06:49:42;;;;;;;25.23;18.67;;;10.70;74.50;;;;;;5051723;28;20025;-81
2021/10/09 07:00:35;;;;;;;26.87;16.27;;;10.70;74.70;;;;;;5048276;28;20040;-81
2021/10/09 07:03:00;;;;;;;25.70;17.30;;;10.80;74.70;;;;;;5046421;28;20462;-81
2021/10/09 07:05:26;;;;;;;23.90;17.80;;;10.80;74.80;;;;;;5053187;28;20032;-81
2021/10/09 07:07:57;;;;;;;27.00;17.47;;;10.80;74.70;;;;;;5053856;28;20060;-81
2021/10/09 07:10:23;;;;;;;27.10;15.83;;;10.90;74.80;;;;;;5056564;28;20025;-81
2021/10/09 07:12:49;;;;;;;21.70;14.93;;;10.90;74.60;;;;;;5047954;28;20075;-81
2021/10/09 07:15:15;;;;;;;19.83;14.67;;;10.90;74.60;;;;;;5052935;28;20029;-81
2021/10/09 07:17:42;;;;;;;21.87;14.67;;;10.90;74.60;;;;;;5051879;28;20017;-81
2021/10/09 07:20:08;;;;;;;20.67;14.87;;;11.00;74.60;;;;;;5049325;28;20116;-81
2021/10/09 07:22:35;;;;;;;23.23;16.93;;;11.00;74.60;;;;;;5055406;28;20386;-81
2021/10/09 07:25:01;;;;;;;22.67;15.57;;;11.00;74.50;;;;;;5047683;28;20051;-81
2021/10/09 07:27:27;;;;;;;25.73;17.33;;;11.10;74.50;;;;;;5041463;28;20032;-81
2021/10/09 07:29:53;;;;;;;23.77;17.07;;;11.00;74.60;;;;;;5048921;28;20074;-81
2021/10/09 07:32:18;;;;;;;21.87;16.47;;;11.10;74.90;;;;;;5054168;28;20021;-81
2021/10/09 07:34:44;;;;;;;23.47;16.40;;;11.20;74.90;;;;;;5049472;28;20021;-81
2021/10/09 07:37:10;;;;;;;26.67;15.53;;;11.30;74.70;;;;;;5055071;28;20038;-81
2021/10/09 07:39:37;;;;;;;32.30;15.63;;;11.40;74.60;;;;;;5054078;28;20018;-81
2021/10/09 07:42:03;;;;;;;20.03;14.50;;;11.40;74.40;;;;;;5055045;28;20025;-81
2021/10/09 07:44:29;;;;;;;21.07;14.63;;;11.50;74.30;;;;;;5047707;28;20017;-81
2021/10/09 07:46:55;;;;;;;17.80;13.00;;;11.50;74.10;;;;;;5048902;28;20033;-81
2021/10/09 07:49:21;;;;;;;18.50;13.73;;;11.50;74.00;;;;;;5053780;28;20029;-81
2021/10/09 07:51:47;;;;;;;17.00;12.00;;;11.50;73.90;;;;;;5053937;28;20082;-81
2021/10/09 07:54:13;;;;;;;14.37;10.97;;;11.50;73.60;;;;;;5054283;28;20025;-82
2021/10/09 07:56:39;;;;;;;15.60;11.13;;;11.50;73.40;;;;;;5053434;28;20029;-81
2021/10/09 07:59:11;;;;;;;20.77;11.43;;;11.50;73.20;;;;;;5050263;28;20025;-81
2021/10/09 08:01:37;;;;;;;16.98;11.35;;;11.50;73.10;;;;;;5045702;28;20109;-81
2021/10/09 08:04:03;;;;;;;15.53;11.17;;;11.70;73.00;;;;;;5053050;28;20132;-82
2021/10/09 08:06:29;;;;;;;15.45;10.95;;;11.80;72.70;;;;;;5050002;28;20043;-82
2021/10/09 08:08:54;;;;;;;13.55;9.90;;;12.50;72.90;;;;;;5062608;28;20033;-81
2021/10/09 08:16:29;;;;;;;10.35;9.30;;;15.40;68.80;;;;;;5001400;28;20050;-80
2021/10/09 08:19:01;;;;;;;12.18;9.45;;;16.40;64.50;;;;;;5011174;28;20071;-80
2021/10/09 08:21:29;;;;;;;10.25;9.23;;;17.30;59.40;;;;;;5008728;28;20030;-81
2021/10/09 08:24:13;;;;;;;16.35;9.43;;;16.80;60.20;;;;;;5010872;28;20026;-81
2021/10/09 08:40:17;;;;;;;14.10;9.35;;;14.80;62.80;;;;;;5008853;28;20033;-81
2021/10/09 08:42:43;;;;;;;12.25;9.05;;;14.70;63.00;;;;;;5005554;28;20399;-81
2021/10/09 08:45:10;;;;;;;13.38;10.13;;;14.60;63.20;;;;;;5006036;28;20021;-81
2021/10/09 08:47:37;;;;;;;12.88;9.52;;;14.50;63.30;;;;;;5008772;28;20054;-80
2021/10/09 08:50:07;;;;;;;14.70;10.88;;;14.40;63.20;;;;;;5028097;28;20025;-81
2021/10/09 08:52:33;;;;;;;14.23;10.25;;;14.30;63.20;;;;;;5008466;28;20500;-81
2021/10/09 08:55:24;;;;;;;14.95;10.43;;;14.10;63.50;;;;;;5015133;28;20527;-81
2021/10/09 08:57:51;;;;;;;13.02;9.88;;;14.10;63.80;;;;;;5009779;28;21488;-81
2021/10/09 09:00:23;;;;;;;15.25;10.18;;;14.20;64.20;;;;;;5009065;28;20022;-81
2021/10/09 09:09:28;;;;;;;13.57;10.00;;;14.40;64.10;;;;;;5009822;28;20534;-82
2021/10/09 09:39:53;;;;;;;10.77;9.15;;;15.60;61.90;;;;;;4993236;28;20426;-82
2021/10/09 09:42:25;;;;;;;10.32;8.65;;;15.70;61.90;;;;;;4990987;28;20118;-82
2021/10/09 09:44:57;;;;;;;10.63;8.60;;;15.80;61.50;;;;;;5000856;28;20453;-82
2021/10/09 09:47:34;;;;;;;13.80;8.82;;;15.90;60.90;;;;;;4997067;28;20026;-83
2021/10/09 09:50:05;;;;;;;10.10;9.00;;;16.00;60.60;;;;;;4992477;28;20018;-82
2021/10/09 09:52:38;;;;;;;11.52;8.70;;;16.00;59.90;;;;;;4991250;28;20137;-82
2021/10/09 09:55:06;;;;;;;14.77;8.30;;;16.10;59.90;;;;;;4999739;28;20035;-83
2021/10/09 09:57:34;;;;;;;10.00;6.85;;;16.20;59.20;;;;;;4991010;28;20027;-82
2021/10/09 10:00:01;;;;;;;9.23;7.32;;;16.40;58.70;;;;;;4993224;28;20010;-83
2021/10/09 10:02:29;;;;;;;10.00;7.28;;;16.50;57.90;;;;;;4993328;28;20042;-83
2021/10/09 10:04:59;;;;;;;7.97;6.93;;;16.60;57.50;;;;;;4992371;28;20061;-83
2021/10/09 10:07:26;;;;;;;8.65;7.35;;;16.70;57.10;;;;;;4992323;28;20023;-82
2021/10/09 10:09:52;;;;;;;10.68;7.90;;;16.70;56.80;;;;;;4981701;28;20057;-82
2021/10/09 10:12:18;;;;;;;9.02;7.40;;;16.80;56.40;;;;;;4984924;28;20030;-82
2021/10/09 10:14:47;;;;;;;9.00;6.80;;;16.80;56.10;;;;;;4993467;28;20044;-82
2021/10/09 10:17:13;;;;;;;9.05;7.53;;;16.90;55.80;;;;;;4992623;28;20032;-83
2021/10/09 10:19:50;;;;;;;13.25;8.57;;;17.00;55.60;;;;;;4989736;28;20031;-82
2021/10/09 10:22:17;;;;;;;12.43;8.20;;;17.10;55.60;;;;;;4997626;28;20358;-82
2021/10/09 10:24:47;;;;;;;9.85;6.93;;;17.10;55.90;;;;;;4991450;28;20445;-82
2021/10/09 10:27:40;;;;;;;11.02;7.28;;;17.20;55.30;;;;;;4989255;28;20022;-82
2021/10/09 10:30:15;;;;;;;10.23;7.38;;;17.30;55.00;;;;;;4990698;28;20104;-82
2021/10/09 10:32:57;;;;;;;8.93;6.28;;;17.20;54.70;;;;;;5008160;28;21425;-83
2021/10/09 10:35:31;;;;;;;10.15;7.18;;;17.20;54.80;;;;;;4997026;28;20077;-83
2021/10/09 10:38:02;;;;;;;8.55;6.85;;;17.30;54.50;;;;;;4994410;28;20030;-82
2021/10/09 10:40:46;;;;;;;12.60;7.55;;;17.30;54.60;;;;;;4994383;28;20029;-83
2021/10/09 10:43:54;;;;;;;8.23;6.25;;;17.40;54.40;;;;;;5008575;28;20384;-82
2021/10/09 10:46:39;;;;;;;10.32;7.00;;;17.40;55.00;;;;;;5012064;28;20065;-82
2021/10/09 10:49:17;;;;;;;9.20;7.63;;;17.50;55.00;;;;;;5010955;28;20118;-82
2021/10/09 10:56:57;;;;;;;7.25;6.38;;;17.70;54.50;;;;;;4998650;28;20034;-82
2021/10/09 10:59:32;;;;;;;10.70;7.03;;;17.80;54.30;;;;;;4994591;28;20033;-82
2021/10/09 11:02:31;;;;;;;10.63;7.57;;;17.80;54.40;;;;;;4988559;28;20041;-83
2021/10/09 11:05:11;;;;;;;10.55;8.02;;;17.80;53.40;;;;;;4995087;28;20068;-83
2021/10/09 11:07:39;;;;;;;8.73;7.13;;;17.70;53.30;;;;;;4991194;28;20030;-83
2021/10/09 11:10:16;;;;;;;10.00;7.18;;;17.80;53.70;;;;;;4990446;28;20080;-83
2021/10/09 11:12:50;;;;;;;9.35;6.30;;;17.80;53.90;;;;;;4988424;28;20026;-82
2021/10/09 11:15:26;;;;;;;9.10;7.32;;;17.80;53.90;;;;;;4989555;28;20050;-81
2021/10/09 11:17:55;;;;;;;7.93;6.18;;;17.80;53.20;;;;;;4986858;28;20026;-82
2021/10/09 11:20:37;;;;;;;13.85;6.13;;;17.90;53.70;;;;;;4990105;28;20493;-82
2021/10/09 11:23:05;;;;;;;9.90;7.18;;;18.00;53.80;;;;;;4990865;28;20030;-82
2021/10/09 11:25:44;;;;;;;8.45;6.25;;;18.00;53.40;;;;;;4983217;28;20034;-81
2021/10/09 11:28:21;;;;;;;9.63;6.00;;;18.10;53.40;;;;;;4983924;28;20397;-81
2021/10/09 11:30:47;;;;;;;9.30;5.82;;;18.00;52.90;;;;;;4990016;28;20097;-81
2021/10/09 11:33:13;;;;;;;6.72;5.75;;;18.00;53.50;;;;;;4990717;28;20033;-82
2021/10/09 11:35:41;;;;;;;7.40;6.40;;;18.10;53.50;;;;;;4988691;28;20100;-82
2021/10/09 11:38:34;;;;;;;8.88;6.97;;;18.10;53.40;;;;;;4989154;28;20473;-81
2021/10/09 11:41:07;;;;;;;9.40;6.95;;;18.10;52.80;;;;;;4988593;28;20037;-81
2021/10/09 11:55:22;;;;;;;8.40;6.63;;;18.20;52.30;;;;;;5002361;28;21432;-81
2021/10/09 11:57:50;;;;;;;7.75;6.70;;;18.00;51.50;;;;;;4991842;28;20157;-82
2021/10/09 12:00:28;;;;;;;11.98;6.82;;;18.10;52.00;;;;;;4996231;28;20762;-82
2021/10/09 12:03:36;;;;;;;11.48;6.80;;;18.20;51.80;;;;;;4998656;28;20023;-81
2021/10/09 12:06:09;;;;;;;11.13;5.97;;;18.30;51.90;;;;;;5000002;28;20038;-81
2021/10/09 12:08:45;;;;;;;8.95;6.60;;;18.40;52.20;;;;;;4994387;28;20029;-81
2021/10/09 12:11:23;;;;;;;8.18;6.63;;;18.40;51.80;;;;;;4992158;28;20149;-81
2021/10/09 12:14:01;;;;;;;9.63;6.47;;;18.40;52.00;;;;;;4998101;28;20033;-82
2021/10/09 12:16:29;;;;;;;8.02;6.75;;;18.40;52.00;;;;;;4989840;28;20660;-82
2021/10/09 12:19:15;;;;;;;8.13;6.80;;;18.50;52.10;;;;;;5010395;28;20034;-82
2021/10/09 12:22:04;;;;;;;7.93;6.75;;;18.40;52.10;;;;;;5000190;28;20026;-82
2021/10/09 12:24:57;;;;;;;8.50;7.22;;;18.50;52.10;;;;;;4997311;28;20026;-82
2021/10/09 12:27:35;;;;;;;11.13;7.40;;;18.50;51.90;;;;;;4996264;28;20512;-82
2021/10/09 12:30:12;;;;;;;11.75;7.72;;;18.50;52.00;;;;;;4998595;28;20034;-81
2021/10/09 12:32:41;;;;;;;10.55;7.65;;;18.60;51.90;;;;;;4996213;28;21012;-82
2021/10/09 12:35:13;;;;;;;8.63;7.07;;;18.60;52.20;;;;;;5010145;28;20046;-81
2021/10/09 12:37:58;;;;;;;10.53;7.73;;;18.50;51.90;;;;;;4994112;28;20531;-81
2021/10/09 12:40:35;;;;;;;8.80;7.22;;;18.40;51.90;;;;;;5010308;28;20340;-82
2021/10/09 12:43:08;;;;;;;9.60;7.07;;;18.40;52.40;;;;;;4991849;28;20034;-81
2021/10/09 12:45:34;;;;;;;9.55;7.75;;;18.40;52.50;;;;;;4990672;28;20022;-82
2021/10/09 12:48:00;;;;;;;8.27;7.18;;;18.40;52.70;;;;;;4993433;28;20034;-82
2021/10/09 12:50:29;;;;;;;9.77;7.53;;;18.50;52.90;;;;;;4992133;28;21346;-82
2021/10/09 12:52:56;;;;;;;10.63;8.32;;;18.50;52.50;;;;;;4989169;28;20489;-83
2021/10/09 12:55:33;;;;;;;8.57;7.45;;;18.40;52.30;;;;;;4989001;28;20045;-82
2021/10/09 12:58:01;;;;;;;10.00;7.38;;;18.40;52.40;;;;;;4988647;28;20118;-82
2021/10/09 13:00:30;;;;;;;10.25;8.60;;;18.50;52.70;;;;;;4989841;28;20058;-83
2021/10/09 13:02:57;;;;;;;9.30;7.38;;;18.50;52.60;;;;;;4991772;28;20033;-82
2021/10/09 13:05:25;;;;;;;11.25;7.30;;;18.40;52.70;;;;;;5004652;28;20389;-83
2021/10/09 13:07:52;;;;;;;10.10;7.53;;;18.40;52.80;;;;;;4991903;28;20033;-82
2021/10/09 13:10:21;;;;;;;7.25;6.55;;;18.50;52.90;;;;;;4994015;28;20504;-82
2021/10/09 13:12:47;;;;;;;10.55;6.70;;;18.50;52.80;;;;;;4993295;28;20018;-82
2021/10/09 13:15:17;;;;;;;9.40;7.03;;;18.40;52.90;;;;;;4993720;28;20583;-82
2021/10/09 13:17:46;;;;;;;8.95;6.80;;;18.50;52.90;;;;;;4989688;28;20022;-82
2021/10/09 13:20:13;;;;;;;9.88;7.85;;;18.50;52.50;;;;;;4990217;28;20030;-82
2021/10/09 13:22:41;;;;;;;8.50;7.60;;;18.40;52.30;;;;;;5002972;28;20027;-83
2021/10/09 13:25:08;;;;;;;11.30;7.65;;;18.30;52.50;;;;;;4987264;28;20093;-82
2021/10/09 13:27:35;;;;;;;10.68;7.90;;;18.20;52.60;;;;;;4993725;28;20023;-82
2021/10/09 13:30:01;;;;;;;10.57;7.80;;;18.20;52.90;;;;;;4991123;28;20106;-82
2021/10/09 13:32:27;;;;;;;9.32;7.32;;;18.30;52.90;;;;;;4992335;28;20061;-82
2021/10/09 13:34:53;;;;;;;11.20;7.45;;;18.30;52.90;;;;;;4994831;28;20072;-82
2021/10/09 13:37:21;;;;;;;11.25;7.35;;;18.20;53.00;;;;;;4994083;28;20031;-82
2021/10/09 13:39:53;;;;;;;9.98;8.35;;;18.20;53.20;;;;;;4991395;28;20042;-82
2021/10/09 13:42:19;;;;;;;12.02;7.40;;;18.20;53.10;;;;;;4993071;28;20026;-81
2021/10/09 13:44:45;;;;;;;11.50;8.60;;;18.10;53.30;;;;;;4991880;28;20026;-81
2021/10/09 13:47:11;;;;;;;12.32;7.88;;;18.10;53.10;;;;;;4993033;28;20133;-81
2021/10/09 13:49:38;;;;;;;10.00;7.60;;;18.10;53.30;;;;;;4997042;28;20031;-82
2021/10/09 13:52:09;;;;;;;9.45;7.95;;;18.00;53.30;;;;;;4997897;28;20033;-82
2021/10/09 13:54:35;;;;;;;11.27;7.70;;;18.00;53.60;;;;;;4982468;28;20096;-82
2021/10/09 13:57:01;;;;;;;14.07;9.13;;;18.00;53.60;;;;;;4991193;28;20030;-82
2021/10/09 13:59:28;;;;;;;9.93;8.60;;;18.00;53.40;;;;;;4992523;28;20030;-82
2021/10/09 14:01:56;;;;;;;16.55;8.30;;;17.90;53.50;;;;;;4991710;28;20026;-82
2021/10/09 14:04:23;;;;;;;12.85;9.70;;;17.90;53.80;;;;;;4989261;28;20037;-82
2021/10/09 14:06:48;;;;;;;10.80;8.93;;;17.80;53.50;;;;;;4991078;28;20038;-82
2021/10/09 14:09:14;;;;;;;13.65;8.30;;;17.70;54.00;;;;;;4988658;28;20035;-82
2021/10/09 14:11:40;;;;;;;12.20;8.55;;;17.70;54.20;;;;;;4990448;28;20109;-82
2021/10/09 14:14:07;;;;;;;11.25;8.27;;;17.70;54.10;;;;;;4988604;28;20120;-82
2021/10/09 14:16:33;;;;;;;13.20;9.25;;;17.70;54.10;;;;;;4992484;28;20040;-83
2021/10/09 14:18:59;;;;;;;10.18;9.07;;;17.70;54.10;;;;;;4989660;28;20030;-82
2021/10/09 14:21:25;;;;;;;11.75;8.85;;;17.70;54.10;;;;;;4990361;28;20030;-83
2021/10/09 14:23:52;;;;;;;11.55;8.60;;;17.70;54.10;;;;;;4993010;28;20050;-82
2021/10/09 14:26:18;;;;;;;10.68;8.90;;;17.70;54.10;;;;;;4995957;28;20480;-82
2021/10/09 14:29:12;;;;;;;10.93;9.35;;;17.70;54.20;;;;;;5083447;27;20445;-82
2021/10/09 14:31:38;;;;;;;14.27;8.80;;;17.60;54.20;;;;;;5065003;28;20028;-83
2021/10/09 14:34:06;;;;;;;12.23;8.35;;;17.60;54.20;;;;;;5067372;28;20063;-83
2021/10/09 14:36:33;;;;;;;11.18;9.40;;;17.50;54.50;;;;;;5068475;28;20031;-83
2021/10/09 14:39:01;;;;;;;13.57;8.45;;;17.50;54.60;;;;;;5071272;28;20082;-83
2021/10/09 14:41:27;;;;;;;9.15;8.02;;;17.50;54.60;;;;;;5073276;28;20035;-83
2021/10/09 14:43:52;;;;;;;10.93;8.35;;;17.50;54.70;;;;;;5069206;28;20111;-82
2021/10/09 14:48:51;;;;;;;12.93;8.60;;;17.40;54.80;;;;;;5073488;28;20066;-82
2021/10/09 15:18:25;;;;;;;16.38;11.00;;;16.90;55.50;;;;;;5055021;28;20634;-82
2021/10/09 15:20:53;;;;;;;14.18;10.05;;;16.80;55.50;;;;;;5059480;28;20040;-82
2021/10/09 15:23:21;;;;;;;14.55;10.45;;;16.70;55.60;;;;;;5064847;28;20032;-81
2021/10/09 15:25:49;;;;;;;15.55;10.80;;;16.60;55.80;;;;;;5064884;28;20037;-81
2021/10/09 15:28:17;;;;;;;15.20;10.70;;;16.60;55.90;;;;;;5060606;28;20131;-83
2021/10/09 15:30:43;;;;;;;16.27;11.02;;;16.50;56.20;;;;;;5061373;28;20683;-83